Time;durP1;ratioP1;P1;durP2;ratioP2;P2;SDS_P1;SDS_P2;PMS_P1;PMS_P2;Temp;Humidity;BMP_temperature;BMP_pressure;BME280_temperature;BME280_humidity;BME280_pressure;Samples;Min_cycle;Max_cycle;Signal;HPM_P1;HPM_P2
2022/08/21 00:01:33;;;;;;;5.10;3.75;;;23.40;98.50;;;;;;5003608;28;20585;-69
2022/08/21 00:04:05;;;;;;;4.15;3.45;;;23.30;98.50;;;;;;4991013;28;20231;-70
2022/08/21 00:06:32;;;;;;;5.15;3.30;;;23.20;98.70;;;;;;4998833;28;20208;-69
2022/08/21 00:08:59;;;;;;;6.35;3.55;;;23.20;98.90;;;;;;5001766;28;20231;-68
2022/08/21 00:11:27;;;;;;;7.93;3.85;;;23.10;99.10;;;;;;4999868;28;20591;-68
2022/08/21 00:13:54;;;;;;;4.85;3.97;;;23.10;99.30;;;;;;5001524;28;20261;-67
2022/08/21 00:16:22;;;;;;;5.05;3.85;;;23.10;99.40;;;;;;5007700;28;20214;-67
2022/08/21 00:18:49;;;;;;;4.38;3.85;;;23.10;99.60;;;;;;4990562;28;20262;-67
2022/08/21 00:21:17;;;;;;;5.97;3.90;;;23.10;99.80;;;;;;4991282;28;20208;-67
2022/08/21 00:23:44;;;;;;;4.68;3.75;;;23.10;99.90;;;;;;4995411;28;20232;-67
2022/08/21 00:26:11;;;;;;;4.22;3.63;;;23.00;99.90;;;;;;4990332;28;20212;-66
2022/08/21 00:28:39;;;;;;;5.20;3.55;;;23.00;99.90;;;;;;4992867;28;20208;-69
2022/08/21 00:31:06;;;;;;;4.72;3.85;;;23.00;99.90;;;;;;4996691;28;20314;-69
2022/08/21 00:33:33;;;;;;;4.70;3.50;;;22.90;99.90;;;;;;5005871;28;20414;-68
2022/08/21 00:36:01;;;;;;;4.00;3.60;;;22.90;99.90;;;;;;4996796;28;20208;-67
2022/08/21 00:38:27;;;;;;;4.10;3.53;;;22.90;99.90;;;;;;4990930;28;20200;-67
2022/08/21 00:41:00;;;;;;;4.15;3.60;;;22.90;99.90;;;;;;5000404;28;20703;-68
2022/08/21 00:43:29;;;;;;;4.47;3.35;;;22.80;99.90;;;;;;4997680;28;20195;-68
2022/08/21 00:46:00;;;;;;;3.60;3.30;;;22.80;99.90;;;;;;4990758;28;20425;-68
2022/08/21 00:48:28;;;;;;;7.20;3.97;;;22.80;99.90;;;;;;4990451;28;20215;-69
2022/08/21 00:50:58;;;;;;;6.80;4.40;;;22.70;99.90;;;;;;4999165;28;20222;-67
2022/08/21 00:53:25;;;;;;;4.78;3.40;;;22.60;99.90;;;;;;4991717;28;20576;-68
2022/08/21 00:55:53;;;;;;;3.35;3.05;;;22.50;99.90;;;;;;4990271;28;20218;-67
2022/08/21 00:58:20;;;;;;;4.13;3.63;;;22.60;99.90;;;;;;4996834;28;20250;-69
2022/08/21 01:00:49;;;;;;;7.80;4.53;;;22.50;99.90;;;;;;5007649;28;20215;-69
2022/08/21 01:03:22;;;;;;;5.65;3.72;;;22.50;99.90;;;;;;5003757;28;20211;-69
2022/08/21 01:05:49;;;;;;;7.55;3.78;;;22.50;99.90;;;;;;4997452;28;20942;-68
2022/08/21 01:08:19;;;;;;;8.15;3.78;;;22.50;99.90;;;;;;4996761;28;20223;-68
2022/08/21 01:10:46;;;;;;;4.70;3.50;;;22.50;99.90;;;;;;4994425;28;20220;-69
2022/08/21 01:13:16;;;;;;;9.27;4.00;;;22.40;99.90;;;;;;4989992;28;20218;-69
2022/08/21 01:15:46;;;;;;;4.03;3.60;;;22.40;99.90;;;;;;4997503;28;20203;-69
2022/08/21 01:18:14;;;;;;;6.60;3.85;;;22.40;99.90;;;;;;4998782;28;20207;-68
2022/08/21 01:20:50;;;;;;;6.38;4.28;;;22.40;99.90;;;;;;4990253;28;20677;-68
2022/08/21 01:23:19;;;;;;;5.55;3.10;;;22.40;99.90;;;;;;4997817;28;20227;-68
2022/08/21 01:25:45;;;;;;;5.05;4.05;;;22.40;99.90;;;;;;4990260;28;20210;-68
2022/08/21 01:28:15;;;;;;;5.25;3.95;;;22.50;99.90;;;;;;4990233;28;20676;-68
2022/08/21 01:30:44;;;;;;;3.60;3.25;;;22.50;99.90;;;;;;4990334;28;20270;-68
2022/08/21 01:33:11;;;;;;;6.75;3.72;;;22.50;99.90;;;;;;4993797;28;20269;-68
2022/08/21 01:35:38;;;;;;;6.03;4.55;;;22.40;99.90;;;;;;5009932;28;20242;-69
2022/08/21 01:38:05;;;;;;;7.45;3.75;;;22.40;99.90;;;;;;5008648;28;20211;-68
2022/08/21 01:40:33;;;;;;;3.90;3.50;;;22.40;99.90;;;;;;4999637;28;20212;-69
2022/08/21 01:43:00;;;;;;;5.25;3.58;;;22.40;99.90;;;;;;5003779;28;20575;-69
2022/08/21 01:45:27;;;;;;;5.30;3.45;;;22.40;99.90;;;;;;4989942;28;20641;-68
2022/08/21 01:47:53;;;;;;;3.60;3.30;;;22.40;99.90;;;;;;5008563;28;20207;-69
2022/08/21 01:50:21;;;;;;;3.72;3.30;;;22.40;99.90;;;;;;5002085;28;20260;-69
2022/08/21 01:52:48;;;;;;;6.75;3.20;;;22.40;99.90;;;;;;4993409;28;20227;-68
2022/08/21 01:55:17;;;;;;;4.25;3.42;;;22.40;99.90;;;;;;5007606;28;20211;-69
2022/08/21 01:57:47;;;;;;;3.72;3.42;;;22.40;99.90;;;;;;4993704;28;20231;-66
2022/08/21 02:00:17;;;;;;;4.85;3.58;;;22.40;99.90;;;;;;4996343;28;20208;-66
2022/08/21 02:02:44;;;;;;;6.85;3.88;;;22.40;99.90;;;;;;4996849;28;20211;-66
2022/08/21 02:05:12;;;;;;;3.63;3.30;;;22.40;99.90;;;;;;5001870;28;20220;-66
2022/08/21 02:07:41;;;;;;;4.57;3.17;;;22.40;99.90;;;;;;5014217;28;20578;-67
2022/08/21 02:10:10;;;;;;;5.80;3.38;;;22.50;99.90;;;;;;4996159;28;20608;-67
2022/08/21 02:12:36;;;;;;;4.05;3.65;;;22.40;99.90;;;;;;5006600;28;20219;-67
2022/08/21 02:15:06;;;;;;;4.85;3.53;;;22.40;99.90;;;;;;5005827;28;20211;-67
2022/08/21 02:17:40;;;;;;;6.47;3.50;;;22.40;99.90;;;;;;5010204;28;20640;-67
2022/08/21 02:20:07;;;;;;;7.07;3.45;;;22.40;99.90;;;;;;5014191;28;20203;-68
2022/08/21 02:22:34;;;;;;;4.55;3.70;;;22.40;99.90;;;;;;5009060;28;20661;-68
2022/08/21 02:25:01;;;;;;;5.93;3.60;;;22.40;99.90;;;;;;5006386;28;20211;-67
2022/08/21 02:27:28;;;;;;;3.60;3.30;;;22.50;99.90;;;;;;4998936;28;20213;-67
2022/08/21 02:29:58;;;;;;;5.80;3.35;;;22.40;99.90;;;;;;5002321;28;20212;-68
2022/08/21 02:32:26;;;;;;;6.05;3.40;;;22.30;99.90;;;;;;4993031;28;20231;-67
2022/08/21 02:34:53;;;;;;;5.13;3.30;;;22.30;99.90;;;;;;5007004;28;20207;-67
2022/08/21 02:37:20;;;;;;;3.30;2.97;;;22.20;99.90;;;;;;4998657;28;20216;-68
2022/08/21 02:39:46;;;;;;;3.75;3.35;;;22.20;99.90;;;;;;5002380;28;20222;-69
2022/08/21 02:42:13;;;;;;;3.72;3.20;;;22.20;99.90;;;;;;5002178;28;20204;-69
2022/08/21 02:44:40;;;;;;;5.47;3.63;;;22.10;99.90;;;;;;4997001;28;20224;-68
2022/08/21 02:47:06;;;;;;;5.65;4.05;;;22.10;99.90;;;;;;4993187;28;20625;-68
2022/08/21 02:49:35;;;;;;;5.97;4.18;;;22.10;99.90;;;;;;5005303;28;20203;-69
2022/08/21 02:52:01;;;;;;;4.35;3.50;;;22.10;99.90;;;;;;4992541;28;20231;-69
2022/08/21 02:54:28;;;;;;;6.57;3.20;;;22.10;99.90;;;;;;5004468;28;20241;-67
2022/08/21 02:56:55;;;;;;;3.70;3.40;;;22.10;99.90;;;;;;5004590;28;20241;-67
2022/08/21 02:59:21;;;;;;;4.88;3.38;;;22.10;99.90;;;;;;5008849;28;20203;-67
2022/08/21 03:01:48;;;;;;;5.68;4.38;;;22.10;99.90;;;;;;4996270;28;20640;-67
2022/08/21 03:04:15;;;;;;;4.57;3.22;;;22.00;99.90;;;;;;4992927;28;20258;-67
2022/08/21 03:06:43;;;;;;;4.45;3.22;;;22.00;99.90;;;;;;5004459;28;20203;-67
2022/08/21 03:09:10;;;;;;;3.50;3.20;;;22.00;99.90;;;;;;4999134;28;20208;-70
2022/08/21 03:11:37;;;;;;;6.00;3.78;;;21.90;99.90;;;;;;4992812;28;20699;-68
2022/08/21 03:14:05;;;;;;;8.93;3.40;;;21.90;99.90;;;;;;5005742;28;20261;-68
2022/08/21 03:16:31;;;;;;;3.97;3.50;;;21.80;99.90;;;;;;5012223;28;20219;-68
2022/08/21 03:18:59;;;;;;;4.60;3.60;;;21.70;99.90;;;;;;4997336;28;20210;-69
2022/08/21 03:21:26;;;;;;;7.45;3.30;;;21.70;99.90;;;;;;5009709;28;20234;-68
2022/08/21 03:23:54;;;;;;;5.70;3.47;;;21.60;99.90;;;;;;5002873;28;20212;-68
2022/08/21 03:26:21;;;;;;;3.85;3.10;;;21.60;99.90;;;;;;4996282;28;20238;-69
2022/08/21 03:28:48;;;;;;;4.65;3.60;;;21.60;99.90;;;;;;4999112;28;20608;-68
2022/08/21 03:31:15;;;;;;;5.28;3.45;;;21.60;99.90;;;;;;4998541;28;20266;-68
2022/08/21 03:33:42;;;;;;;4.65;3.75;;;21.60;99.90;;;;;;5003793;28;20228;-69
2022/08/21 03:36:12;;;;;;;4.57;3.33;;;21.60;99.90;;;;;;5001197;28;20226;-68
2022/08/21 03:38:40;;;;;;;4.00;3.60;;;21.60;99.90;;;;;;4996149;28;20235;-67
2022/08/21 03:41:08;;;;;;;3.83;3.25;;;21.70;99.90;;;;;;5009331;28;20215;-68
2022/08/21 03:43:36;;;;;;;5.00;3.78;;;21.70;99.90;;;;;;4995224;28;20649;-68
2022/08/21 03:46:04;;;;;;;5.72;3.60;;;21.70;99.90;;;;;;4993592;28;20207;-69
2022/08/21 03:48:31;;;;;;;3.38;3.08;;;21.70;99.90;;;;;;4998916;28;20723;-68
2022/08/21 03:50:58;;;;;;;8.43;3.30;;;21.70;99.90;;;;;;4993012;28;20211;-69
2022/08/21 03:53:25;;;;;;;3.70;3.40;;;21.70;99.90;;;;;;4996274;28;20219;-69
2022/08/21 03:55:53;;;;;;;3.55;3.10;;;21.80;99.90;;;;;;4997826;28;20270;-68
2022/08/21 03:58:23;;;;;;;3.60;3.30;;;21.70;99.90;;;;;;4991722;28;20764;-68
2022/08/21 04:00:54;;;;;;;3.97;3.67;;;21.70;99.90;;;;;;4994504;28;20534;-69
2022/08/21 04:03:21;;;;;;;3.83;3.25;;;21.70;99.90;;;;;;4991399;28;20211;-68
2022/08/21 04:05:48;;;;;;;4.20;3.25;;;21.70;99.90;;;;;;5002235;28;20214;-68
2022/08/21 04:08:18;;;;;;;4.88;3.10;;;21.80;99.90;;;;;;4990012;28;20273;-67
2022/08/21 04:10:48;;;;;;;4.95;3.65;;;21.70;99.90;;;;;;4991572;28;20203;-68
2022/08/21 04:13:15;;;;;;;5.72;3.65;;;21.70;99.90;;;;;;4991019;28;20567;-68
2022/08/21 04:15:43;;;;;;;3.40;3.05;;;21.70;99.90;;;;;;4992280;28;20222;-68
2022/08/21 04:18:10;;;;;;;5.65;3.05;;;21.80;99.90;;;;;;5002166;28;20664;-68
2022/08/21 04:20:37;;;;;;;6.40;3.25;;;21.80;99.90;;;;;;4994267;28;20223;-69
2022/08/21 04:23:04;;;;;;;4.15;2.90;;;21.80;99.90;;;;;;4991272;28;20255;-68
2022/08/21 04:25:32;;;;;;;3.78;3.20;;;21.80;99.90;;;;;;5000104;28;20664;-68
2022/08/21 04:27:59;;;;;;;4.07;3.53;;;21.90;99.90;;;;;;4993541;28;20203;-70
2022/08/21 04:30:26;;;;;;;4.32;2.80;;;21.90;99.90;;;;;;5004666;28;20208;-69
2022/08/21 04:32:54;;;;;;;3.47;3.17;;;21.90;99.90;;;;;;5009107;28;20297;-70
2022/08/21 04:35:23;;;;;;;4.13;3.72;;;21.90;99.90;;;;;;4999357;28;20211;-71
2022/08/21 04:37:50;;;;;;;3.92;3.55;;;21.90;99.90;;;;;;5001789;28;20652;-71
2022/08/21 04:40:19;;;;;;;3.63;3.10;;;21.90;99.90;;;;;;4997067;28;20216;-70
2022/08/21 04:42:49;;;;;;;4.40;3.08;;;21.90;99.90;;;;;;5011440;28;20727;-70
2022/08/21 04:45:21;;;;;;;7.15;3.22;;;21.90;99.90;;;;;;4994866;28;20267;-70
2022/08/21 04:47:50;;;;;;;5.22;3.58;;;21.90;99.90;;;;;;5002291;28;20261;-71
2022/08/21 04:50:18;;;;;;;4.47;3.72;;;21.90;99.90;;;;;;4991469;28;20219;-71
2022/08/21 04:52:46;;;;;;;3.92;3.58;;;21.90;99.90;;;;;;4990891;28;20236;-71
2022/08/21 04:55:13;;;;;;;3.38;2.95;;;22.00;99.90;;;;;;4992004;28;20218;-72
2022/08/21 04:57:41;;;;;;;5.55;3.55;;;22.00;99.90;;;;;;4998507;28;20277;-70
2022/08/21 05:00:11;;;;;;;5.72;3.42;;;22.00;99.90;;;;;;4993393;28;20234;-70
2022/08/21 05:02:39;;;;;;;5.38;3.33;;;22.10;99.90;;;;;;5002360;28;20606;-70
2022/08/21 05:05:07;;;;;;;4.38;3.50;;;22.20;99.90;;;;;;4991666;28;20206;-72
2022/08/21 05:07:35;;;;;;;5.00;3.50;;;22.30;99.90;;;;;;4991091;28;20640;-70
2022/08/21 05:10:02;;;;;;;7.68;4.20;;;22.40;99.90;;;;;;4990737;28;20716;-69
2022/08/21 05:12:29;;;;;;;6.00;3.60;;;22.50;99.90;;;;;;4993249;28;20549;-70
2022/08/21 05:14:56;;;;;;;4.72;3.70;;;22.50;99.90;;;;;;5002884;28;20203;-70
2022/08/21 05:17:23;;;;;;;5.00;3.60;;;22.60;99.90;;;;;;5006624;28;20204;-70
2022/08/21 05:19:50;;;;;;;6.10;3.10;;;22.70;99.90;;;;;;4991094;28;20239;-70
2022/08/21 05:22:20;;;;;;;3.97;3.55;;;22.80;99.90;;;;;;5001594;28;20227;-71
2022/08/21 05:24:48;;;;;;;3.97;3.60;;;22.90;99.90;;;;;;5004454;28;20211;-71
2022/08/21 05:27:15;;;;;;;5.68;3.53;;;22.90;99.90;;;;;;5000415;28;20203;-70
2022/08/21 05:29:42;;;;;;;4.20;3.45;;;22.90;99.90;;;;;;5008811;28;20219;-70
2022/08/21 05:32:10;;;;;;;4.85;3.72;;;23.00;99.90;;;;;;4995132;28;20231;-70
2022/08/21 05:34:37;;;;;;;3.97;3.55;;;23.10;99.90;;;;;;5006408;28;20235;-71
2022/08/21 05:37:04;;;;;;;4.25;3.53;;;23.10;99.90;;;;;;5005452;28;20529;-71
2022/08/21 05:39:31;;;;;;;3.30;3.00;;;23.10;99.90;;;;;;5001282;28;20251;-71
2022/08/21 05:41:59;;;;;;;4.20;3.80;;;23.10;99.90;;;;;;5002520;28;20216;-70
2022/08/21 05:44:26;;;;;;;4.15;3.60;;;23.20;99.90;;;;;;5001479;28;20208;-72
2022/08/21 05:46:53;;;;;;;4.40;4.00;;;23.30;99.90;;;;;;5014079;28;20246;-70
2022/08/21 05:49:19;;;;;;;3.75;3.45;;;23.30;99.90;;;;;;5003360;28;20216;-70
2022/08/21 05:51:46;;;;;;;4.93;3.70;;;23.30;99.90;;;;;;4995501;28;20570;-69
2022/08/21 05:54:13;;;;;;;3.92;3.20;;;23.40;99.90;;;;;;5003371;28;20305;-69
2022/08/21 05:56:40;;;;;;;4.53;3.35;;;23.40;99.90;;;;;;5000053;28;20251;-70
2022/08/21 05:59:12;;;;;;;4.15;3.75;;;23.50;99.90;;;;;;5013999;28;20245;-70
2022/08/21 06:01:39;;;;;;;4.40;3.72;;;23.60;99.90;;;;;;4998977;28;20665;-70
2022/08/21 06:04:06;;;;;;;5.22;3.67;;;23.70;99.90;;;;;;5006696;28;20203;-70
2022/08/21 06:06:33;;;;;;;4.00;3.63;;;23.80;99.90;;;;;;5000873;28;20215;-71
2022/08/21 06:09:00;;;;;;;4.47;3.30;;;23.90;99.90;;;;;;5007530;28;20646;-70
2022/08/21 06:11:27;;;;;;;6.63;3.70;;;24.00;99.90;;;;;;4998791;28;20212;-71
2022/08/21 06:13:54;;;;;;;3.88;3.33;;;24.10;99.90;;;;;;4999770;28;20227;-70
2022/08/21 06:16:22;;;;;;;6.32;3.70;;;24.10;99.90;;;;;;5015790;28;20221;-69
2022/08/21 06:18:49;;;;;;;4.72;3.90;;;24.20;99.90;;;;;;5011111;28;20215;-69
2022/08/21 06:21:16;;;;;;;4.53;3.85;;;24.20;99.90;;;;;;4999957;28;20212;-69
2022/08/21 06:23:44;;;;;;;3.72;3.42;;;24.20;99.90;;;;;;4994375;28;20212;-69
2022/08/21 06:26:13;;;;;;;4.57;3.80;;;24.10;99.90;;;;;;4994014;28;20204;-69
2022/08/21 06:28:41;;;;;;;5.50;3.67;;;24.10;99.90;;;;;;5003124;28;20208;-70
2022/08/21 06:31:13;;;;;;;3.60;3.13;;;24.10;99.90;;;;;;4993756;28;20634;-70
2022/08/21 06:33:41;;;;;;;4.35;3.53;;;24.00;99.90;;;;;;5001556;28;20731;-71
2022/08/21 06:36:09;;;;;;;3.72;3.40;;;24.10;99.90;;;;;;5021869;28;20238;-70
2022/08/21 06:38:35;;;;;;;4.05;3.65;;;24.10;99.90;;;;;;5001672;28;20463;-70
2022/08/21 06:41:03;;;;;;;4.05;3.75;;;24.20;99.90;;;;;;5007477;28;20207;-71
2022/08/21 06:43:29;;;;;;;4.80;3.72;;;24.20;99.90;;;;;;5009265;28;20200;-71
2022/08/21 06:45:56;;;;;;;4.68;4.13;;;24.30;99.90;;;;;;4997275;28;20219;-71
2022/08/21 06:48:23;;;;;;;6.57;3.90;;;24.30;99.90;;;;;;5001730;28;20216;-71
2022/08/21 06:50:52;;;;;;;4.63;4.10;;;24.40;99.90;;;;;;5001596;28;20758;-71
2022/08/21 06:53:21;;;;;;;5.15;3.72;;;24.50;99.90;;;;;;4995267;28;20231;-72
2022/08/21 06:55:49;;;;;;;3.95;3.50;;;24.60;99.90;;;;;;5007325;28;20210;-72
2022/08/21 06:58:16;;;;;;;4.85;3.63;;;24.60;99.90;;;;;;5009928;28;20231;-69
2022/08/21 07:00:45;;;;;;;7.20;3.40;;;24.80;99.90;;;;;;5002238;28;20207;-69
2022/08/21 07:03:19;;;;;;;4.55;4.00;;;24.80;99.90;;;;;;5010871;28;20571;-69
2022/08/21 07:05:45;;;;;;;5.47;3.90;;;25.00;99.90;;;;;;5006092;28;20641;-67
2022/08/21 07:08:13;;;;;;;5.13;3.90;;;25.00;99.90;;;;;;5014050;28;20207;-68
2022/08/21 07:10:40;;;;;;;11.75;5.50;;;25.10;99.90;;;;;;5010242;28;20211;-68
2022/08/21 07:13:07;;;;;;;19.40;8.00;;;25.20;99.90;;;;;;5006935;28;20227;-67
2022/08/21 07:15:34;;;;;;;9.15;4.25;;;25.20;99.90;;;;;;5008899;28;20204;-68
2022/08/21 07:18:01;;;;;;;9.90;4.63;;;25.40;99.90;;;;;;5009139;28;20211;-70
2022/08/21 07:20:29;;;;;;;6.43;4.63;;;25.40;99.90;;;;;;5009739;28;20211;-67
2022/08/21 07:22:57;;;;;;;6.47;3.97;;;25.50;99.90;;;;;;5009469;28;20226;-67
2022/08/21 07:25:25;;;;;;;7.30;4.10;;;25.60;99.90;;;;;;5011060;28;20203;-67
2022/08/21 07:27:52;;;;;;;7.30;4.80;;;25.70;99.90;;;;;;5009634;28;20216;-68
2022/08/21 07:30:19;;;;;;;5.70;4.00;;;25.90;99.90;;;;;;5007595;28;20214;-67
2022/08/21 07:32:48;;;;;;;5.95;3.60;;;26.10;99.90;;;;;;5011807;28;20210;-68
2022/08/21 07:35:15;;;;;;;4.45;3.75;;;26.30;99.90;;;;;;5002764;28;20203;-68
2022/08/21 07:37:42;;;;;;;5.85;4.20;;;26.40;99.90;;;;;;5006973;28;20210;-68
2022/08/21 07:40:10;;;;;;;4.57;3.88;;;26.40;99.90;;;;;;5002938;28;20216;-68
2022/08/21 07:42:43;;;;;;;8.05;4.15;;;26.50;99.90;;;;;;4998252;28;20247;-69
2022/08/21 07:45:11;;;;;;;4.05;3.63;;;26.60;99.90;;;;;;4996354;28;20200;-68
2022/08/21 07:47:38;;;;;;;4.03;3.55;;;26.70;99.90;;;;;;5005106;28;20211;-68
2022/08/21 07:50:06;;;;;;;4.47;3.70;;;26.80;99.90;;;;;;4998965;28;20240;-67
2022/08/21 07:52:33;;;;;;;5.28;3.58;;;26.90;99.90;;;;;;5018421;28;20222;-67
2022/08/21 07:55:01;;;;;;;4.00;3.60;;;27.00;99.90;;;;;;5010088;28;20231;-67
2022/08/21 07:57:28;;;;;;;4.97;3.72;;;27.10;99.90;;;;;;5002425;28;20243;-65
2022/08/21 07:59:56;;;;;;;4.18;2.95;;;27.20;99.90;;;;;;5004117;28;20242;-67
2022/08/21 08:02:24;;;;;;;4.28;3.28;;;27.20;99.90;;;;;;5007205;28;20200;-66
2022/08/21 08:04:51;;;;;;;6.75;3.75;;;27.30;99.90;;;;;;5002593;28;20207;-67
2022/08/21 08:07:18;;;;;;;7.45;3.42;;;27.40;99.90;;;;;;5013448;28;20210;-66
2022/08/21 08:09:45;;;;;;;4.72;3.45;;;27.50;99.90;;;;;;5002693;28;20241;-66
2022/08/21 08:12:13;;;;;;;4.10;3.65;;;27.60;99.90;;;;;;5004096;28;20222;-68
2022/08/21 08:14:39;;;;;;;4.40;3.30;;;27.60;99.70;;;;;;5011037;28;20226;-68
2022/08/21 08:17:08;;;;;;;5.50;3.22;;;27.60;99.70;;;;;;5007991;28;20238;-72
2022/08/21 08:19:35;;;;;;;3.95;3.40;;;27.50;99.80;;;;;;5006905;28;20218;-68
2022/08/21 08:22:01;;;;;;;7.65;3.75;;;27.60;99.20;;;;;;5012269;28;20728;-70
2022/08/21 08:24:28;;;;;;;4.38;3.70;;;27.60;99.10;;;;;;5009848;28;20202;-68
2022/08/21 08:26:56;;;;;;;8.07;3.35;;;27.70;99.30;;;;;;5005224;28;20208;-68
2022/08/21 08:29:23;;;;;;;3.42;3.05;;;27.70;99.20;;;;;;5004667;28;20211;-68
2022/08/21 08:31:50;;;;;;;7.38;4.05;;;27.70;99.00;;;;;;5011376;28;20286;-70
2022/08/21 08:34:19;;;;;;;5.30;3.50;;;27.80;99.10;;;;;;5012543;28;20225;-68
2022/08/21 08:36:47;;;;;;;3.40;3.10;;;28.00;99.20;;;;;;4998195;28;20230;-70
2022/08/21 08:39:13;;;;;;;3.60;3.30;;;28.20;98.80;;;;;;5000763;28;20645;-69
2022/08/21 08:41:41;;;;;;;4.18;3.60;;;28.20;98.90;;;;;;5000514;28;20200;-72
2022/08/21 08:44:09;;;;;;;6.25;3.53;;;28.30;98.60;;;;;;4998822;28;20207;-70
2022/08/21 08:46:41;;;;;;;4.32;3.30;;;28.50;98.20;;;;;;4994745;28;20208;-69
2022/08/21 08:49:14;;;;;;;6.13;3.17;;;28.50;97.90;;;;;;4992771;28;20273;-70
2022/08/21 08:51:47;;;;;;;3.60;3.20;;;28.70;97.60;;;;;;4994286;28;21481;-69
2022/08/21 08:54:19;;;;;;;4.93;3.42;;;28.80;97.20;;;;;;5005329;28;20304;-70
2022/08/21 08:56:47;;;;;;;4.75;3.58;;;29.00;96.50;;;;;;5016347;28;20249;-69
2022/08/21 08:59:17;;;;;;;4.28;3.55;;;29.10;96.30;;;;;;4994020;28;20204;-69
2022/08/21 09:01:44;;;;;;;6.35;3.10;;;29.40;96.00;;;;;;4994298;28;20208;-68
2022/08/21 09:04:13;;;;;;;7.05;3.78;;;29.60;95.70;;;;;;5003386;28;20226;-69
2022/08/21 09:06:57;;;;;;;4.90;3.10;;;29.70;95.10;;;;;;4992239;28;20212;-69
2022/08/21 09:09:34;;;;;;;3.80;3.45;;;29.80;94.60;;;;;;4996260;28;20258;-69
2022/08/21 09:12:06;;;;;;;4.22;3.85;;;29.90;94.60;;;;;;4998457;28;20572;-69
2022/08/21 09:14:47;;;;;;;5.85;3.40;;;30.10;94.90;;;;;;5010452;28;20251;-71
2022/08/21 09:17:26;;;;;;;4.05;3.42;;;30.30;94.00;;;;;;4999285;28;20200;-69
2022/08/21 09:20:03;;;;;;;3.55;3.25;;;30.50;93.20;;;;;;4998327;28;20203;-71
2022/08/21 09:22:44;;;;;;;4.22;2.90;;;30.70;93.10;;;;;;4992583;28;20230;-70
2022/08/21 09:25:16;;;;;;;3.28;2.97;;;30.90;92.40;;;;;;4988029;28;20203;-70
2022/08/21 09:27:43;;;;;;;6.68;3.20;;;31.10;92.20;;;;;;4996341;28;20207;-70
2022/08/21 09:30:11;;;;;;;3.15;2.88;;;31.40;92.10;;;;;;4990360;28;20218;-70
2022/08/21 09:32:39;;;;;;;6.53;3.05;;;31.70;90.40;;;;;;5000100;28;20204;-70
2022/08/21 09:35:09;;;;;;;3.15;2.85;;;31.60;90.20;;;;;;4998008;28;20239;-70
2022/08/21 09:37:49;;;;;;;4.00;3.40;;;31.60;89.50;;;;;;4999947;28;20203;-70
2022/08/21 09:40:30;;;;;;;5.68;3.28;;;31.70;88.30;;;;;;5000125;28;20199;-71
2022/08/21 09:42:59;;;;;;;3.28;2.97;;;31.80;88.40;;;;;;4994606;28;20311;-70
2022/08/21 09:45:26;;;;;;;3.22;2.58;;;31.90;85.50;;;;;;4992728;28;20212;-70
2022/08/21 09:47:53;;;;;;;4.13;3.35;;;31.80;84.80;;;;;;4993619;28;20200;-70
2022/08/21 09:50:23;;;;;;;4.93;3.00;;;31.60;86.20;;;;;;4997237;28;20583;-70
2022/08/21 09:52:53;;;;;;;3.45;2.50;;;31.70;85.70;;;;;;4994255;28;20288;-70
2022/08/21 09:58:15;;;;;;;3.03;2.72;;;32.00;84.60;;;;;;5014089;28;20250;-69
2022/08/21 10:00:43;;;;;;;5.00;2.80;;;31.90;83.40;;;;;;4996725;28;20211;-67
2022/08/21 10:03:13;;;;;;;3.92;2.70;;;31.60;83.00;;;;;;4992052;28;20336;-68
2022/08/21 10:05:41;;;;;;;3.63;2.50;;;31.40;84.10;;;;;;4994338;28;20744;-69
2022/08/21 10:08:19;;;;;;;3.97;2.80;;;31.40;84.70;;;;;;5005367;28;20218;-68
2022/08/21 10:10:50;;;;;;;3.28;2.75;;;31.20;85.30;;;;;;5010580;28;20199;-69
2022/08/21 10:13:25;;;;;;;3.78;2.97;;;31.20;85.60;;;;;;5012183;28;20242;-68
2022/08/21 10:16:02;;;;;;;3.97;2.40;;;31.10;85.30;;;;;;4997062;28;20211;-70
2022/08/21 10:18:36;;;;;;;3.20;2.58;;;30.90;85.40;;;;;;4996452;28;20215;-68
2022/08/21 10:21:09;;;;;;;5.47;2.28;;;30.50;86.20;;;;;;4999854;28;20199;-68
2022/08/21 10:23:47;;;;;;;9.48;2.75;;;30.30;87.10;;;;;;5012381;28;20210;-67
2022/08/21 10:26:28;;;;;;;2.55;2.30;;;30.30;87.30;;;;;;4994938;28;20207;-68
2022/08/21 10:29:03;;;;;;;5.38;2.50;;;30.30;87.30;;;;;;5008205;28;20587;-68
2022/08/21 10:31:38;;;;;;;2.40;2.20;;;30.10;86.10;;;;;;5001940;28;20515;-66
2022/08/21 10:34:19;;;;;;;4.90;2.85;;;29.70;87.40;;;;;;5004489;28;20219;-65
2022/08/21 10:37:02;;;;;;;2.83;2.63;;;29.50;88.30;;;;;;5002766;28;20215;-65
2022/08/21 10:39:33;;;;;;;4.85;2.83;;;29.30;89.50;;;;;;5001923;28;20285;-66
2022/08/21 10:42:13;;;;;;;3.90;2.63;;;29.10;90.00;;;;;;5000727;28;20199;-66
2022/08/21 10:44:48;;;;;;;7.57;2.60;;;29.10;90.00;;;;;;4998236;28;20684;-66
2022/08/21 10:47:20;;;;;;;2.90;2.67;;;29.00;90.10;;;;;;4993315;28;20679;-66
2022/08/21 10:49:52;;;;;;;2.58;2.38;;;29.00;90.40;;;;;;5007703;28;20222;-65
2022/08/21 10:52:31;;;;;;;2.95;2.30;;;29.10;90.20;;;;;;4992686;28;20231;-66
2022/08/21 10:55:04;;;;;;;2.70;2.40;;;29.10;89.90;;;;;;4992439;28;20235;-66
2022/08/21 10:57:39;;;;;;;3.38;2.35;;;29.40;90.20;;;;;;4992578;28;20369;-65
2022/08/21 11:00:10;;;;;;;3.30;2.47;;;29.90;90.00;;;;;;4993685;28;20203;-66
2022/08/21 11:02:42;;;;;;;2.95;2.38;;;30.40;88.80;;;;;;4999483;28;20207;-69
2022/08/21 11:05:14;;;;;;;2.55;2.05;;;30.80;86.50;;;;;;5004602;28;20703;-69
2022/08/21 11:07:49;;;;;;;2.42;2.22;;;31.20;86.40;;;;;;5005698;28;20207;-69
2022/08/21 11:10:23;;;;;;;4.93;2.38;;;31.60;83.60;;;;;;5004388;28;20210;-70
2022/08/21 11:12:55;;;;;;;3.05;2.28;;;32.00;82.00;;;;;;5001394;28;20206;-70
2022/08/21 11:15:34;;;;;;;3.95;2.17;;;32.30;80.10;;;;;;4996851;28;20208;-70
2022/08/21 11:18:10;;;;;;;3.30;2.95;;;32.30;79.00;;;;;;4995965;28;20701;-69
2022/08/21 11:20:44;;;;;;;3.72;2.45;;;32.40;79.10;;;;;;5006406;28;20588;-69
2022/08/21 11:23:16;;;;;;;3.95;2.42;;;32.50;78.30;;;;;;4992458;28;20231;-68
2022/08/21 11:25:49;;;;;;;2.88;2.33;;;32.60;77.40;;;;;;5001632;28;20211;-69
2022/08/21 11:28:22;;;;;;;2.55;1.98;;;32.70;76.50;;;;;;4993731;28;20311;-72
2022/08/21 11:30:57;;;;;;;2.60;2.40;;;32.90;76.60;;;;;;5004481;28;20203;-70
2022/08/21 11:33:38;;;;;;;5.00;2.40;;;33.10;75.10;;;;;;5003233;28;20199;-70
2022/08/21 11:36:16;;;;;;;4.50;2.40;;;33.20;74.20;;;;;;5000338;28;20708;-71
2022/08/21 11:38:47;;;;;;;2.72;1.90;;;33.40;72.10;;;;;;4992950;28;20204;-71
2022/08/21 11:41:26;;;;;;;2.80;2.40;;;33.30;71.00;;;;;;5000034;28;20199;-70
2022/08/21 11:44:02;;;;;;;2.72;1.85;;;33.00;71.20;;;;;;4995864;28;20203;-70
2022/08/21 11:46:44;;;;;;;1.92;1.83;;;32.70;72.10;;;;;;4992368;28;20665;-69
2022/08/21 11:49:30;;;;;;;2.95;2.15;;;32.50;72.80;;;;;;5000962;28;20211;-68
2022/08/21 11:52:08;;;;;;;2.85;2.17;;;32.30;73.70;;;;;;4992859;28;20211;-68
2022/08/21 11:54:41;;;;;;;1.90;1.80;;;32.30;74.90;;;;;;5005349;28;20692;-68
2022/08/21 11:57:18;;;;;;;2.35;2.10;;;32.40;75.10;;;;;;5004716;28;20240;-68
2022/08/21 11:59:52;;;;;;;2.42;1.92;;;32.70;73.30;;;;;;5000206;28;20235;-68
2022/08/21 12:02:22;;;;;;;3.10;2.30;;;32.80;72.40;;;;;;4993387;28;20551;-69
2022/08/21 12:04:53;;;;;;;2.10;1.90;;;32.70;73.00;;;;;;5009383;28;20681;-68
2022/08/21 12:07:33;;;;;;;2.30;1.98;;;32.60;73.20;;;;;;5003363;28;20216;-68
2022/08/21 12:10:01;;;;;;;2.00;1.80;;;32.50;73.00;;;;;;4999714;28;20569;-67
2022/08/21 12:12:33;;;;;;;2.58;2.08;;;32.40;73.90;;;;;;4998596;28;20303;-73
2022/08/21 12:15:23;;;;;;;2.47;2.22;;;32.50;74.10;;;;;;4996581;28;20576;-67
2022/08/21 12:17:57;;;;;;;2.53;1.95;;;32.70;73.40;;;;;;5004079;28;20230;-69
2022/08/21 12:20:36;;;;;;;2.60;2.17;;;32.70;73.00;;;;;;4996556;28;20211;-68
2022/08/21 12:23:15;;;;;;;2.40;1.83;;;32.80;73.40;;;;;;4995709;28;20546;-68
2022/08/21 12:25:44;;;;;;;2.15;2.05;;;33.00;72.30;;;;;;4990962;28;20211;-68
2022/08/21 12:28:15;;;;;;;4.45;1.95;;;33.00;72.40;;;;;;4991442;28;20203;-69
2022/08/21 12:30:44;;;;;;;2.92;2.20;;;33.20;70.70;;;;;;4990212;28;20211;-68
2022/08/21 12:33:23;;;;;;;2.25;2.03;;;33.10;70.70;;;;;;5004147;28;20223;-69
2022/08/21 12:35:53;;;;;;;1.73;1.63;;;33.10;70.20;;;;;;5005836;28;20586;-68
2022/08/21 12:38:24;;;;;;;3.25;2.05;;;33.00;69.40;;;;;;4996634;28;20212;-68
2022/08/21 12:40:54;;;;;;;2.60;1.80;;;33.10;69.90;;;;;;5010711;28;20203;-68
2022/08/21 12:43:33;;;;;;;4.03;2.00;;;33.20;68.70;;;;;;5005807;28;20597;-67
2022/08/21 12:46:03;;;;;;;2.75;2.10;;;33.10;69.10;;;;;;5001222;28;20194;-67
2022/08/21 12:48:34;;;;;;;2.60;2.15;;;33.20;68.90;;;;;;5007129;28;20207;-68
2022/08/21 12:51:10;;;;;;;2.45;2.20;;;33.20;68.10;;;;;;5000485;28;20291;-67
2022/08/21 12:53:46;;;;;;;2.40;2.20;;;33.00;68.30;;;;;;4990339;28;20215;-67
2022/08/21 12:56:15;;;;;;;2.03;1.90;;;32.80;68.90;;;;;;4994724;28;20641;-68
2022/08/21 12:58:47;;;;;;;2.30;2.10;;;32.80;69.20;;;;;;5000728;28;20207;-68
2022/08/21 13:01:22;;;;;;;3.47;2.47;;;33.00;69.40;;;;;;4990693;28;20218;-68
2022/08/21 13:03:50;;;;;;;3.40;2.13;;;32.80;69.60;;;;;;4995034;28;20648;-67